Time,TemperatureF,DewpointF,PressureIn,WindDirection,WindDirectionDegrees,WindSpeedMPH,WindSpeedGustMPH,Humidity,HourlyPrecipIn,Conditions,Clouds,dailyrainin,SolarRadiationWatts/m^2,SoftwareType,DateUTC
2013-01-17 00:02:00,29.0,23.0,-100.00,SSE,167,1.0,3.0,79,0.00,,,0.00,0.000000,,2013-01-17 06:02:00,
2013-01-17 00:12:00,29.0,23.0,-100.00,SSE,167,1.0,3.0,79,0.00,,,0.00,0.000000,,2013-01-17 06:12:00,
2013-01-17 00:33:00,32.0,25.0,-100.00,South,190,0.0,4.0,74,0.00,,,-99.99,0.000000,,2013-01-17 06:33:00,
2013-01-17 00:42:00,32.0,25.0,-100.00,South,190,0.0,4.0,74,0.00,,,-99.99,0.000000,,2013-01-17 06:42:00,
2013-01-17 00:53:00,32.0,25.0,-100.00,South,190,0.0,4.0,74,0.00,,,-99.99,0.000000,,2013-01-17 06:53:00,
2013-01-17 01:02:00,32.0,25.0,-100.00,South,190,0.0,4.0,74,0.00,,,-99.99,0.000000,,2013-01-17 07:02:00,
2013-01-17 01:12:00,32.0,25.0,-100.00,South,190,0.0,4.0,74,0.00,,,-99.99,0.000000,,2013-01-17 07:12:00,
2013-01-17 01:43:00,35.0,23.0,-100.00,WSW,248,2.0,6.0,62,0.00,,,0.00,0.000000,,2013-01-17 07:43:00,
2013-01-17 01:53:00,35.0,23.0,-100.00,WSW,248,2.0,6.0,62,0.00,,,0.00,0.000000,,2013-01-17 07:53:00,
2013-01-17 02:02:00,35.0,23.0,-100.00,WSW,248,2.0,6.0,62,0.00,,,0.00,0.000000,,2013-01-17 08:02:00,
2013-01-17 02:12:00,35.0,23.0,-100.00,WSW,248,2.0,6.0,62,0.00,,,0.00,0.000000,,2013-01-17 08:12:00,
2013-01-17 02:43:00,35.0,24.0,-100.00,WSW,238,1.0,5.0,64,0.00,,,0.00,0.000000,,2013-01-17 08:43:00,
2013-01-17 02:53:00,35.0,24.0,-100.00,WSW,238,1.0,5.0,64,0.00,,,0.00,0.000000,,2013-01-17 08:53:00,
2013-01-17 03:02:00,35.0,24.0,-100.00,WSW,238,1.0,5.0,64,0.00,,,0.00,0.000000,,2013-01-17 09:02:00,
2013-01-17 03:12:00,35.0,24.0,-100.00,WSW,238,1.0,5.0,64,0.00,,,0.00,0.000000,,2013-01-17 09:12:00,
2013-01-17 03:33:00,36.0,24.0,-100.00,WNW,297,2.0,7.0,62,0.00,,,0.00,0.000000,,2013-01-17 09:33:00,
2013-01-17 03:43:00,36.0,24.0,-100.00,WNW,297,2.0,7.0,62,0.00,,,0.00,0.000000,,2013-01-17 09:43:00,
2013-01-17 03:52:00,36.0,24.0,-100.00,WNW,297,2.0,7.0,62,0.00,,,0.00,0.000000,,2013-01-17 09:52:00,
2013-01-17 04:02:00,36.0,24.0,-100.00,WNW,297,2.0,7.0,62,0.00,,,0.00,0.000000,,2013-01-17 10:02:00,
2013-01-17 04:12:00,36.0,24.0,-100.00,WNW,297,2.0,7.0,62,0.00,,,0.00,0.000000,,2013-01-17 10:12:00,
2013-01-17 04:33:00,36.0,25.0,-100.00,WNW,298,1.0,7.0,63,0.00,,,0.00,0.000000,,2013-01-17 10:33:00,
2013-01-17 04:43:00,36.0,25.0,-100.00,WNW,298,1.0,7.0,63,0.00,,,0.00,0.000000,,2013-01-17 10:43:00,
2013-01-17 04:53:00,36.0,25.0,-100.00,WNW,298,1.0,7.0,63,0.00,,,0.00,0.000000,,2013-01-17 10:53:00,
2013-01-17 05:02:00,36.0,25.0,-100.00,WNW,298,1.0,7.0,63,0.00,,,0.00,0.000000,,2013-01-17 11:02:00,
2013-01-17 05:12:00,36.0,25.0,-100.00,WNW,298,1.0,7.0,63,0.00,,,0.00,0.000000,,2013-01-17 11:12:00,
2013-01-17 05:33:00,36.0,25.0,-100.00,NNW,332,3.0,8.0,64,0.00,,,0.00,0.000000,,2013-01-17 11:33:00,
2013-01-17 05:43:00,36.0,25.0,-100.00,NNW,332,3.0,8.0,64,0.00,,,0.00,0.000000,,2013-01-17 11:43:00,
2013-01-17 05:53:00,36.0,25.0,-100.00,NNW,332,3.0,8.0,64,0.00,,,0.00,0.000000,,2013-01-17 11:53:00,
2013-01-17 06:02:00,36.0,25.0,-100.00,NNW,332,3.0,8.0,64,0.00,,,0.00,0.000000,,2013-01-17 12:02:00,
2013-01-17 06:12:00,36.0,25.0,-100.00,NNW,332,3.0,8.0,64,0.00,,,0.00,0.000000,,2013-01-17 12:12:00,
2013-01-17 06:33:00,34.0,26.0,-100.00,NNW,337,5.0,10.0,72,0.00,,,0.00,0.000000,,2013-01-17 12:33:00,
2013-01-17 06:43:00,34.0,26.0,-100.00,NNW,337,5.0,10.0,72,0.00,,,0.00,0.000000,,2013-01-17 12:43:00,
2013-01-17 06:53:00,34.0,26.0,-100.00,NNW,337,5.0,10.0,72,0.00,,,0.00,0.000000,,2013-01-17 12:53:00,
2013-01-17 07:03:00,34.0,26.0,-100.00,NNW,337,5.0,10.0,72,0.00,,,0.00,0.000000,,2013-01-17 13:03:00,
2013-01-17 07:12:00,34.0,26.0,-100.00,NNW,337,5.0,10.0,72,0.00,,,0.00,0.000000,,2013-01-17 13:12:00,
2013-01-17 07:33:00,34.0,28.0,-100.00,North,349,5.0,12.0,80,0.00,,,0.00,0.000000,,2013-01-17 13:33:00,
2013-01-17 07:43:00,34.0,28.0,-100.00,North,349,5.0,12.0,80,0.00,,,0.00,0.000000,,2013-01-17 13:43:00,
2013-01-17 07:53:00,34.0,28.0,-100.00,North,349,5.0,12.0,80,0.00,,,0.00,0.000000,,2013-01-17 13:53:00,
2013-01-17 08:03:00,34.0,28.0,-100.00,North,349,5.0,12.0,80,0.00,,,0.00,0.000000,,2013-01-17 14:03:00,
2013-01-17 08:12:00,34.0,28.0,-100.00,North,349,5.0,12.0,80,0.00,,,0.00,0.000000,,2013-01-17 14:12:00,
2013-01-17 08:33:00,34.0,29.0,-100.00,North,360,8.0,17.0,82,0.00,,,0.00,31.000000,,2013-01-17 14:33:00,
2013-01-17 08:43:00,34.0,29.0,-100.00,North,360,8.0,17.0,82,0.00,,,0.00,31.000000,,2013-01-17 14:43:00,
2013-01-17 08:53:00,34.0,29.0,-100.00,North,360,8.0,17.0,82,0.00,,,0.00,31.000000,,2013-01-17 14:53:00,
2013-01-17 09:03:00,34.0,29.0,-100.00,North,360,8.0,17.0,82,0.00,,,0.00,31.000000,,2013-01-17 15:03:00,
2013-01-17 09:12:00,34.0,29.0,-100.00,North,360,8.0,17.0,82,0.00,,,0.00,31.000000,,2013-01-17 15:12:00,
2013-01-17 09:33:00,36.0,29.0,-100.00,North,360,7.0,15.0,76,0.00,,,0.00,176.000000,,2013-01-17 15:33:00,
2013-01-17 09:43:00,36.0,29.0,-100.00,North,360,7.0,15.0,76,0.00,,,0.00,176.000000,,2013-01-17 15:43:00,
2013-01-17 09:53:00,36.0,29.0,-100.00,North,360,7.0,15.0,76,0.00,,,0.00,176.000000,,2013-01-17 15:53:00,
2013-01-17 10:02:00,36.0,29.0,-100.00,North,360,7.0,15.0,76,0.00,,,0.00,176.000000,,2013-01-17 16:02:00,
2013-01-17 10:12:00,36.0,29.0,-100.00,North,360,7.0,15.0,76,0.00,,,0.00,176.000000,,2013-01-17 16:12:00,
2013-01-17 10:44:00,37.0,28.0,-100.00,NNW,344,8.0,19.0,71,0.00,,,0.00,265.000000,,2013-01-17 16:44:00,
2013-01-17 10:53:00,37.0,28.0,-100.00,NNW,344,8.0,19.0,71,0.00,,,0.00,265.000000,,2013-01-17 16:53:00,
2013-01-17 11:03:00,37.0,28.0,-100.00,NNW,344,8.0,19.0,71,0.00,,,0.00,265.000000,,2013-01-17 17:03:00,
2013-01-17 11:12:00,37.0,28.0,-100.00,NNW,344,8.0,19.0,71,0.00,,,0.00,265.000000,,2013-01-17 17:12:00,
2013-01-17 11:33:00,39.0,27.0,-100.00,North,355,7.0,18.0,63,0.00,,,0.00,304.000000,,2013-01-17 17:33:00,
2013-01-17 11:43:00,39.0,27.0,-100.00,North,355,7.0,18.0,63,0.00,,,0.00,304.000000,,2013-01-17 17:43:00,
2013-01-17 11:53:00,39.0,27.0,-100.00,North,355,7.0,18.0,63,0.00,,,0.00,304.000000,,2013-01-17 17:53:00,
2013-01-17 12:03:00,39.0,27.0,-100.00,North,355,7.0,18.0,63,0.00,,,0.00,304.000000,,2013-01-17 18:03:00,
2013-01-17 12:12:00,39.0,27.0,-100.00,North,355,7.0,18.0,63,0.00,,,0.00,304.000000,,2013-01-17 18:12:00,
2013-01-17 12:34:00,40.0,28.0,-100.00,NW,323,7.0,16.0,61,0.00,,,0.00,480.000000,,2013-01-17 18:34:00,
2013-01-17 12:44:00,40.0,28.0,-100.00,NW,323,7.0,16.0,61,0.00,,,0.00,480.000000,,2013-01-17 18:44:00,
2013-01-17 12:53:00,40.0,28.0,-100.00,NW,323,7.0,16.0,61,0.00,,,0.00,480.000000,,2013-01-17 18:53:00,
2013-01-17 13:03:00,40.0,28.0,-100.00,NW,323,7.0,16.0,61,0.00,,,0.00,480.000000,,2013-01-17 19:03:00,
2013-01-17 13:12:00,40.0,28.0,-100.00,NW,323,7.0,16.0,61,0.00,,,0.00,480.000000,,2013-01-17 19:12:00,
2013-01-17 13:43:00,41.0,25.0,-100.00,NNW,329,9.0,20.0,52,0.00,,,0.00,512.000000,,2013-01-17 19:43:00,
2013-01-17 13:53:00,41.0,25.0,-100.00,NNW,329,9.0,20.0,52,0.00,,,0.00,512.000000,,2013-01-17 19:53:00,
2013-01-17 14:03:00,41.0,25.0,-100.00,NNW,329,9.0,20.0,52,0.00,,,0.00,512.000000,,2013-01-17 20:03:00,
2013-01-17 14:12:00,41.0,25.0,-100.00,NNW,329,9.0,20.0,52,0.00,,,0.00,512.000000,,2013-01-17 20:12:00,
2013-01-17 14:43:00,43.0,19.0,-100.00,NNW,345,8.0,17.0,37,0.00,,,0.00,446.000000,,2013-01-17 20:43:00,
2013-01-17 14:54:00,43.0,19.0,-100.00,NNW,345,8.0,17.0,37,0.00,,,0.00,446.000000,,2013-01-17 20:54:00,
2013-01-17 15:03:00,43.0,19.0,-100.00,NNW,345,8.0,17.0,37,0.00,,,0.00,446.000000,,2013-01-17 21:03:00,
2013-01-17 15:13:00,43.0,19.0,-100.00,NNW,345,8.0,17.0,37,0.00,,,0.00,446.000000,,2013-01-17 21:13:00,
2013-01-17 15:34:00,42.0,21.0,-100.00,NW,307,7.0,15.0,42,0.00,,,0.00,327.000000,,2013-01-17 21:34:00,
2013-01-17 15:43:00,42.0,21.0,-100.00,NW,307,7.0,15.0,42,0.00,,,0.00,327.000000,,2013-01-17 21:43:00,
2013-01-17 15:53:00,42.0,21.0,-100.00,NW,307,7.0,15.0,42,0.00,,,0.00,327.000000,,2013-01-17 21:53:00,
2013-01-17 16:03:00,42.0,21.0,-100.00,NW,307,7.0,15.0,42,0.00,,,0.00,327.000000,,2013-01-17 22:03:00,
2013-01-17 16:12:00,42.0,21.0,-100.00,NW,307,7.0,15.0,42,0.00,,,0.00,327.000000,,2013-01-17 22:12:00,
2013-01-17 16:33:00,40.0,20.0,-100.00,NW,326,6.0,16.0,45,0.00,,,0.00,156.000000,,2013-01-17 22:33:00,
2013-01-17 16:43:00,40.0,20.0,-100.00,NW,326,6.0,16.0,45,0.00,,,0.00,156.000000,,2013-01-17 22:43:00,
2013-01-17 16:53:00,40.0,20.0,-100.00,NW,326,6.0,16.0,45,0.00,,,0.00,156.000000,,2013-01-17 22:53:00,
2013-01-17 17:03:00,40.0,20.0,-100.00,NW,326,6.0,16.0,45,0.00,,,0.00,156.000000,,2013-01-17 23:03:00,
2013-01-17 17:12:00,40.0,20.0,-100.00,NW,326,6.0,16.0,45,0.00,,,0.00,156.000000,,2013-01-17 23:12:00,
2013-01-17 17:43:00,37.0,20.0,-100.00,NNW,332,6.0,13.0,50,0.00,,,0.00,18.000000,,2013-01-17 23:43:00,
2013-01-17 17:53:00,37.0,20.0,-100.00,NNW,332,6.0,13.0,50,0.00,,,0.00,18.000000,,2013-01-17 23:53:00,
2013-01-17 18:03:00,37.0,20.0,-100.00,NNW,332,6.0,13.0,50,0.00,,,0.00,18.000000,,2013-01-18 00:03:00,
2013-01-17 18:12:00,37.0,20.0,-100.00,NNW,332,6.0,13.0,50,0.00,,,0.00,18.000000,,2013-01-18 00:12:00,
2013-01-17 18:43:00,35.0,20.0,-100.00,NNW,337,4.0,13.0,55,0.00,,,0.00,0.000000,,2013-01-18 00:43:00,
2013-01-17 18:53:00,35.0,20.0,-100.00,NNW,337,4.0,13.0,55,0.00,,,0.00,0.000000,,2013-01-18 00:53:00,
2013-01-17 19:03:00,35.0,20.0,-100.00,NNW,337,4.0,13.0,55,0.00,,,0.00,0.000000,,2013-01-18 01:03:00,
2013-01-17 19:12:00,35.0,20.0,-100.00,NNW,337,4.0,13.0,55,0.00,,,0.00,0.000000,,2013-01-18 01:12:00,
2013-01-17 19:33:00,34.0,20.0,-100.00,NNW,334,3.0,7.0,57,0.00,,,0.00,0.000000,,2013-01-18 01:33:00,
2013-01-17 19:43:00,34.0,20.0,-100.00,NNW,334,3.0,7.0,57,0.00,,,0.00,0.000000,,2013-01-18 01:43:00,
2013-01-17 19:53:00,34.0,20.0,-100.00,NNW,334,3.0,7.0,57,0.00,,,0.00,0.000000,,2013-01-18 01:53:00,
2013-01-17 20:02:00,34.0,20.0,-100.00,NNW,334,3.0,7.0,57,0.00,,,0.00,0.000000,,2013-01-18 02:02:00,
2013-01-17 20:12:00,34.0,20.0,-100.00,NNW,334,3.0,7.0,57,0.00,,,0.00,0.000000,,2013-01-18 02:12:00,
2013-01-17 20:43:00,32.0,19.0,-100.00,NW,321,2.0,6.0,58,0.00,,,0.00,0.000000,,2013-01-18 02:43:00,
2013-01-17 20:53:00,32.0,19.0,-100.00,NW,321,2.0,6.0,58,0.00,,,0.00,0.000000,,2013-01-18 02:53:00,
2013-01-17 21:02:00,32.0,19.0,-100.00,NW,321,2.0,6.0,58,0.00,,,0.00,0.000000,,2013-01-18 03:02:00,
2013-01-17 21:12:00,32.0,19.0,-100.00,NW,321,2.0,6.0,58,0.00,,,0.00,0.000000,,2013-01-18 03:12:00,
2013-01-17 21:33:00,28.0,22.0,-100.00,West,276,0.0,3.0,78,0.00,,,0.00,0.000000,,2013-01-18 03:33:00,
2013-01-17 21:43:00,28.0,22.0,-100.00,West,276,0.0,3.0,78,0.00,,,0.00,0.000000,,2013-01-18 03:43:00,
2013-01-17 21:53:00,28.0,22.0,-100.00,West,276,0.0,3.0,78,0.00,,,0.00,0.000000,,2013-01-18 03:53:00,
2013-01-17 22:02:00,28.0,22.0,-100.00,West,276,0.0,3.0,78,0.00,,,0.00,0.000000,,2013-01-18 04:02:00,
2013-01-17 22:12:00,28.0,22.0,-100.00,West,276,0.0,3.0,78,0.00,,,0.00,0.000000,,2013-01-18 04:12:00,
2013-01-17 22:33:00,27.0,22.0,-100.00,SSE,168,1.0,2.0,81,0.00,,,0.00,0.000000,,2013-01-18 04:33:00,
2013-01-17 22:42:00,27.0,22.0,-100.00,SSE,168,1.0,2.0,81,0.00,,,0.00,0.000000,,2013-01-18 04:42:00,
2013-01-17 22:53:00,27.0,22.0,-100.00,SSE,168,1.0,2.0,81,0.00,,,0.00,0.000000,,2013-01-18 04:53:00,
2013-01-17 23:03:00,27.0,22.0,-100.00,SSE,168,1.0,2.0,81,0.00,,,0.00,0.000000,,2013-01-18 05:03:00,
2013-01-17 23:12:00,27.0,22.0,-100.00,SSE,168,1.0,2.0,81,0.00,,,0.00,0.000000,,2013-01-18 05:12:00,
2013-01-17 23:33:00,26.0,21.0,-100.00,SSW,192,0.0,2.0,81,0.00,,,0.00,0.000000,,2013-01-18 05:33:00,
2013-01-17 23:43:00,26.0,21.0,-100.00,SSW,192,0.0,2.0,81,0.00,,,0.00,0.000000,,2013-01-18 05:43:00,
2013-01-17 23:53:00,26.0,21.0,-100.00,SSW,192,0.0,2.0,81,0.00,,,0.00,0.000000,,2013-01-18 05:53:00,